sensor_id;sensor_type;location;lat;lon;timestamp;temperature;humidity
66670;DHT22;53568;52.164;4.472;2023-03-12T00:01:29;6.52;54.14
66670;DHT22;53568;52.164;4.472;2023-03-12T00:03:59;6.51;53.72
66670;DHT22;53568;52.164;4.472;2023-03-12T00:06:25;6.46;53.88
66670;DHT22;53568;52.164;4.472;2023-03-12T00:08:50;6.41;53.52
66670;DHT22;53568;52.164;4.472;2023-03-12T00:11:18;6.44;53.58
66670;DHT22;53568;52.164;4.472;2023-03-12T00:13:49;6.32;54.02
66670;DHT22;53568;52.164;4.472;2023-03-12T00:16:15;6.30;54.19
66670;DHT22;53568;52.164;4.472;2023-03-12T00:18:42;6.32;54.21
66670;DHT22;53568;52.164;4.472;2023-03-12T00:21:09;6.24;54.68
66670;DHT22;53568;52.164;4.472;2023-03-12T00:23:35;6.18;55.13
66670;DHT22;53568;52.164;4.472;2023-03-12T00:26:04;6.11;55.63
66670;DHT22;53568;52.164;4.472;2023-03-12T00:28:30;5.94;56.56
66670;DHT22;53568;52.164;4.472;2023-03-12T00:30:56;6.01;56.42
66670;DHT22;53568;52.164;4.472;2023-03-12T00:33:23;6.04;56.65
66670;DHT22;53568;52.164;4.472;2023-03-12T00:35:49;5.98;57.08
66670;DHT22;53568;52.164;4.472;2023-03-12T00:38:15;5.97;57.17
66670;DHT22;53568;52.164;4.472;2023-03-12T00:40:40;5.77;57.83
66670;DHT22;53568;52.164;4.472;2023-03-12T00:43:06;5.84;57.61
66670;DHT22;53568;52.164;4.472;2023-03-12T00:45:31;5.77;58.01
66670;DHT22;53568;52.164;4.472;2023-03-12T00:47:57;5.89;57.77
66670;DHT22;53568;52.164;4.472;2023-03-12T00:50:22;5.83;57.98
66670;DHT22;53568;52.164;4.472;2023-03-12T00:52:48;5.91;58.04
66670;DHT22;53568;52.164;4.472;2023-03-12T00:55:13;5.96;57.82
66670;DHT22;53568;52.164;4.472;2023-03-12T00:57:39;6.00;57.75
66670;DHT22;53568;52.164;4.472;2023-03-12T01:00:05;5.93;58.38
66670;DHT22;53568;52.164;4.472;2023-03-12T01:02:37;6.03;58.19
66670;DHT22;53568;52.164;4.472;2023-03-12T01:05:05;6.03;58.23
66670;DHT22;53568;52.164;4.472;2023-03-12T01:07:31;6.06;58.10
66670;DHT22;53568;52.164;4.472;2023-03-12T01:09:56;6.00;58.30
66670;DHT22;53568;52.164;4.472;2023-03-12T01:12:22;5.97;58.45
66670;DHT22;53568;52.164;4.472;2023-03-12T01:14:47;5.97;58.80
66670;DHT22;53568;52.164;4.472;2023-03-12T01:17:13;6.01;58.74
66670;DHT22;53568;52.164;4.472;2023-03-12T01:19:38;6.01;58.65
66670;DHT22;53568;52.164;4.472;2023-03-12T01:22:04;6.06;58.78
66670;DHT22;53568;52.164;4.472;2023-03-12T01:24:29;6.06;58.78
66670;DHT22;53568;52.164;4.472;2023-03-12T01:26:55;6.03;58.94
66670;DHT22;53568;52.164;4.472;2023-03-12T01:29:21;6.03;59.15
66670;DHT22;53568;52.164;4.472;2023-03-12T01:31:47;5.90;59.68
66670;DHT22;53568;52.164;4.472;2023-03-12T01:34:12;5.96;59.96
66670;DHT22;53568;52.164;4.472;2023-03-12T01:36:38;6.07;59.58
66670;DHT22;53568;52.164;4.472;2023-03-12T01:39:04;5.96;60.08
66670;DHT22;53568;52.164;4.472;2023-03-12T01:41:31;5.94;60.42
66670;DHT22;53568;52.164;4.472;2023-03-12T01:43:57;5.91;60.49
66670;DHT22;53568;52.164;4.472;2023-03-12T01:51:34;5.94;60.81
66670;DHT22;53568;52.164;4.472;2023-03-12T01:54:06;6.03;60.78
66670;DHT22;53568;52.164;4.472;2023-03-12T01:56:34;5.94;60.83
66670;DHT22;53568;52.164;4.472;2023-03-12T01:59:07;5.93;61.08
66670;DHT22;53568;52.164;4.472;2023-03-12T02:01:34;5.83;61.44
66670;DHT22;53568;52.164;4.472;2023-03-12T02:04:00;5.81;61.63
66670;DHT22;53568;52.164;4.472;2023-03-12T02:06:59;5.80;61.48
66670;DHT22;53568;52.164;4.472;2023-03-12T02:09:22;5.76;61.86
66670;DHT22;53568;52.164;4.472;2023-03-12T02:11:48;5.76;61.74
66670;DHT22;53568;52.164;4.472;2023-03-12T02:14:14;5.87;61.62
66670;DHT22;53568;52.164;4.472;2023-03-12T02:17:09;5.87;61.51
66670;DHT22;53568;52.164;4.472;2023-03-12T02:22:03;5.71;62.02
66670;DHT22;53568;52.164;4.472;2023-03-12T02:25:17;5.76;62.03
66670;DHT22;53568;52.164;4.472;2023-03-12T02:27:35;5.80;61.72
66670;DHT22;53568;52.164;4.472;2023-03-12T02:30:02;5.63;62.15
66670;DHT22;53568;52.164;4.472;2023-03-12T02:32:33;5.73;62.10
66670;DHT22;53568;52.164;4.472;2023-03-12T02:35:00;5.70;62.07
66670;DHT22;53568;52.164;4.472;2023-03-12T02:37:26;5.77;61.88
66670;DHT22;53568;52.164;4.472;2023-03-12T02:40:12;5.71;62.16
66670;DHT22;53568;52.164;4.472;2023-03-12T02:42:39;5.76;61.93
66670;DHT22;53568;52.164;4.472;2023-03-12T02:45:05;5.70;62.17
66670;DHT22;53568;52.164;4.472;2023-03-12T02:47:31;5.74;62.33
66670;DHT22;53568;52.164;4.472;2023-03-12T02:49:57;5.59;62.67
66670;DHT22;53568;52.164;4.472;2023-03-12T02:52:22;5.62;62.70
66670;DHT22;53568;52.164;4.472;2023-03-12T02:54:48;5.62;62.83
66670;DHT22;53568;52.164;4.472;2023-03-12T02:57:13;5.62;62.54
66670;DHT22;53568;52.164;4.472;2023-03-12T02:59:39;5.56;62.96
66670;DHT22;53568;52.164;4.472;2023-03-12T03:02:04;5.53;63.25
66670;DHT22;53568;52.164;4.472;2023-03-12T03:04:31;5.64;63.04
66670;DHT22;53568;52.164;4.472;2023-03-12T03:06:59;5.62;63.12
66670;DHT22;53568;52.164;4.472;2023-03-12T03:09:24;5.56;63.32
66670;DHT22;53568;52.164;4.472;2023-03-12T03:11:50;5.66;63.50
66670;DHT22;53568;52.164;4.472;2023-03-12T03:14:17;5.64;63.58
66670;DHT22;53568;52.164;4.472;2023-03-12T03:16:43;5.71;63.63
66670;DHT22;53568;52.164;4.472;2023-03-12T03:19:08;5.73;63.96
66670;DHT22;53568;52.164;4.472;2023-03-12T03:21:36;5.67;64.63
66670;DHT22;53568;52.164;4.472;2023-03-12T03:24:02;5.59;65.42
66670;DHT22;53568;52.164;4.472;2023-03-12T03:26:27;5.66;65.61
66670;DHT22;53568;52.164;4.472;2023-03-12T03:28:53;5.69;65.99
66670;DHT22;53568;52.164;4.472;2023-03-12T03:31:20;5.63;66.15
66670;DHT22;53568;52.164;4.472;2023-03-12T03:33:46;5.71;66.24
66670;DHT22;53568;52.164;4.472;2023-03-12T03:36:12;5.66;66.46
66670;DHT22;53568;52.164;4.472;2023-03-12T03:38:41;5.62;66.78
66670;DHT22;53568;52.164;4.472;2023-03-12T03:41:11;5.54;67.17
66670;DHT22;53568;52.164;4.472;2023-03-12T03:43:36;5.62;67.26
66670;DHT22;53568;52.164;4.472;2023-03-12T03:46:04;5.69;66.87
66670;DHT22;53568;52.164;4.472;2023-03-12T03:48:30;5.74;66.85
66670;DHT22;53568;52.164;4.472;2023-03-12T03:51:01;5.64;66.84
66670;DHT22;53568;52.164;4.472;2023-03-12T03:53:27;5.59;66.92
66670;DHT22;53568;52.164;4.472;2023-03-12T03:55:52;5.59;66.99
66670;DHT22;53568;52.164;4.472;2023-03-12T03:58:18;5.46;67.53
66670;DHT22;53568;52.164;4.472;2023-03-12T04:00:44;5.46;67.85
66670;DHT22;53568;52.164;4.472;2023-03-12T04:03:10;5.57;67.37
66670;DHT22;53568;52.164;4.472;2023-03-12T04:05:36;5.47;67.93
66670;DHT22;53568;52.164;4.472;2023-03-12T04:08:01;5.53;67.75
66670;DHT22;53568;52.164;4.472;2023-03-12T04:10:28;5.60;67.70
66670;DHT22;53568;52.164;4.472;2023-03-12T04:12:55;5.54;68.02
66670;DHT22;53568;52.164;4.472;2023-03-12T04:15:20;5.46;68.30
66670;DHT22;53568;52.164;4.472;2023-03-12T04:17:46;5.53;68.42
66670;DHT22;53568;52.164;4.472;2023-03-12T04:20:12;5.50;68.42
66670;DHT22;53568;52.164;4.472;2023-03-12T04:22:38;5.47;68.65
66670;DHT22;53568;52.164;4.472;2023-03-12T04:25:05;5.42;68.99
66670;DHT22;53568;52.164;4.472;2023-03-12T04:27:32;5.38;69.32
66670;DHT22;53568;52.164;4.472;2023-03-12T04:29:57;5.28;69.54
66670;DHT22;53568;52.164;4.472;2023-03-12T04:32:23;5.36;69.81
66670;DHT22;53568;52.164;4.472;2023-03-12T04:34:48;5.18;70.35
66670;DHT22;53568;52.164;4.472;2023-03-12T04:37:14;5.23;70.60
66670;DHT22;53568;52.164;4.472;2023-03-12T04:39:40;5.11;71.34
66670;DHT22;53568;52.164;4.472;2023-03-12T04:42:06;5.18;71.28
66670;DHT22;53568;52.164;4.472;2023-03-12T04:44:33;5.25;71.28
66670;DHT22;53568;52.164;4.472;2023-03-12T04:46:58;5.05;72.58
66670;DHT22;53568;52.164;4.472;2023-03-12T04:49:24;5.02;73.16
66670;DHT22;53568;52.164;4.472;2023-03-12T04:51:49;5.26;72.59
66670;DHT22;53568;52.164;4.472;2023-03-12T04:54:15;5.40;72.42
66670;DHT22;53568;52.164;4.472;2023-03-12T04:56:40;5.33;73.12
66670;DHT22;53568;52.164;4.472;2023-03-12T04:59:06;5.29;73.89
66670;DHT22;53568;52.164;4.472;2023-03-12T05:01:35;5.29;74.31
66670;DHT22;53568;52.164;4.472;2023-03-12T05:04:01;5.23;74.97
66670;DHT22;53568;52.164;4.472;2023-03-12T05:06:27;5.23;74.96
66670;DHT22;53568;52.164;4.472;2023-03-12T05:08:53;5.23;75.47
66670;DHT22;53568;52.164;4.472;2023-03-12T05:11:19;5.30;75.21
66670;DHT22;53568;52.164;4.472;2023-03-12T05:13:45;5.22;75.76
66670;DHT22;53568;52.164;4.472;2023-03-12T05:16:13;5.05;76.60
66670;DHT22;53568;52.164;4.472;2023-03-12T05:18:40;5.15;76.77
66670;DHT22;53568;52.164;4.472;2023-03-12T05:21:11;5.16;76.95
66670;DHT22;53568;52.164;4.472;2023-03-12T05:23:37;5.18;76.93
66670;DHT22;53568;52.164;4.472;2023-03-12T05:26:04;5.06;77.23
66670;DHT22;53568;52.164;4.472;2023-03-12T05:28:31;5.04;77.37
66670;DHT22;53568;52.164;4.472;2023-03-12T05:30:59;5.15;77.54
66670;DHT22;53568;52.164;4.472;2023-03-12T05:33:26;5.12;77.93
66670;DHT22;53568;52.164;4.472;2023-03-12T05:35:52;5.15;78.01
66670;DHT22;53568;52.164;4.472;2023-03-12T05:38:18;5.18;78.44
66670;DHT22;53568;52.164;4.472;2023-03-12T05:40:54;5.09;78.71
66670;DHT22;53568;52.164;4.472;2023-03-12T05:43:20;5.02;79.44
66670;DHT22;53568;52.164;4.472;2023-03-12T05:45:46;5.15;79.33
66670;DHT22;53568;52.164;4.472;2023-03-12T05:48:11;5.09;79.67
66670;DHT22;53568;52.164;4.472;2023-03-12T05:50:37;5.09;80.04
66670;DHT22;53568;52.164;4.472;2023-03-12T05:53:03;5.08;80.46
66670;DHT22;53568;52.164;4.472;2023-03-12T05:55:28;5.11;80.42
66670;DHT22;53568;52.164;4.472;2023-03-12T05:57:54;4.91;81.75
66670;DHT22;53568;52.164;4.472;2023-03-12T06:00:20;4.95;81.68
66670;DHT22;53568;52.164;4.472;2023-03-12T06:02:46;4.95;81.75
66670;DHT22;53568;52.164;4.472;2023-03-12T06:05:11;4.88;82.31
66670;DHT22;53568;52.164;4.472;2023-03-12T06:07:37;4.93;82.44
66670;DHT22;53568;52.164;4.472;2023-03-12T06:10:03;4.84;82.72
66670;DHT22;53568;52.164;4.472;2023-03-12T06:12:29;4.98;82.49
66670;DHT22;53568;52.164;4.472;2023-03-12T06:14:56;5.02;82.36
66670;DHT22;53568;52.164;4.472;2023-03-12T06:17:22;5.04;82.61
66670;DHT22;53568;52.164;4.472;2023-03-12T06:19:51;5.00;82.90
66670;DHT22;53568;52.164;4.472;2023-03-12T06:22:18;5.09;82.71
66670;DHT22;53568;52.164;4.472;2023-03-12T06:24:43;5.12;82.81
66670;DHT22;53568;52.164;4.472;2023-03-12T06:27:15;5.20;82.50
66670;DHT22;53568;52.164;4.472;2023-03-12T06:29:41;4.99;83.42
66670;DHT22;53568;52.164;4.472;2023-03-12T06:32:07;5.15;83.22
66670;DHT22;53568;52.164;4.472;2023-03-12T06:34:33;5.15;83.19
66670;DHT22;53568;52.164;4.472;2023-03-12T06:36:59;5.20;83.17
66670;DHT22;53568;52.164;4.472;2023-03-12T06:39:25;5.11;83.88
66670;DHT22;53568;52.164;4.472;2023-03-12T06:41:51;5.09;83.97
66670;DHT22;53568;52.164;4.472;2023-03-12T06:44:16;5.25;83.67
66670;DHT22;53568;52.164;4.472;2023-03-12T06:46:42;5.30;83.44
66670;DHT22;53568;52.164;4.472;2023-03-12T06:49:11;5.20;83.62
66670;DHT22;53568;52.164;4.472;2023-03-12T06:51:37;5.12;84.12
66670;DHT22;53568;52.164;4.472;2023-03-12T06:54:03;5.26;83.84
66670;DHT22;53568;52.164;4.472;2023-03-12T06:56:30;5.30;83.81
66670;DHT22;53568;52.164;4.472;2023-03-12T06:58:56;5.33;83.59
66670;DHT22;53568;52.164;4.472;2023-03-12T07:01:22;5.44;83.41
66670;DHT22;53568;52.164;4.472;2023-03-12T07:03:47;5.42;83.50
66670;DHT22;53568;52.164;4.472;2023-03-12T07:06:15;5.36;83.61
66670;DHT22;53568;52.164;4.472;2023-03-12T07:08:41;5.28;83.97
66670;DHT22;53568;52.164;4.472;2023-03-12T07:11:07;5.49;83.61
66670;DHT22;53568;52.164;4.472;2023-03-12T07:13:32;5.47;83.67
66670;DHT22;53568;52.164;4.472;2023-03-12T07:15:58;5.50;83.55
66670;DHT22;53568;52.164;4.472;2023-03-12T07:18:24;5.50;83.72
66670;DHT22;53568;52.164;4.472;2023-03-12T07:20:50;5.39;84.16
66670;DHT22;53568;52.164;4.472;2023-03-12T07:23:16;5.43;84.02
66670;DHT22;53568;52.164;4.472;2023-03-12T07:25:42;5.62;83.90
66670;DHT22;53568;52.164;4.472;2023-03-12T07:28:09;5.63;84.00
66670;DHT22;53568;52.164;4.472;2023-03-12T07:30:35;5.71;83.95
66670;DHT22;53568;52.164;4.472;2023-03-12T07:33:02;5.78;83.87
66670;DHT22;53568;52.164;4.472;2023-03-12T07:35:28;5.76;84.00
66670;DHT22;53568;52.164;4.472;2023-03-12T07:37:55;5.94;83.65
66670;DHT22;53568;52.164;4.472;2023-03-12T07:40:21;5.90;83.90
66670;DHT22;53568;52.164;4.472;2023-03-12T07:42:47;5.81;83.95
66670;DHT22;53568;52.164;4.472;2023-03-12T07:45:14;5.83;84.47
66670;DHT22;53568;52.164;4.472;2023-03-12T07:47:39;5.77;84.88
66670;DHT22;53568;52.164;4.472;2023-03-12T07:50:05;5.94;84.49
66670;DHT22;53568;52.164;4.472;2023-03-12T07:52:30;6.08;84.11
66670;DHT22;53568;52.164;4.472;2023-03-12T07:54:56;6.01;84.25
66670;DHT22;53568;52.164;4.472;2023-03-12T07:57:23;6.14;84.65
66670;DHT22;53568;52.164;4.472;2023-03-12T07:59:49;6.28;84.44
66670;DHT22;53568;52.164;4.472;2023-03-12T08:02:15;6.31;84.72
66670;DHT22;53568;52.164;4.472;2023-03-12T08:04:40;6.37;84.85
66670;DHT22;53568;52.164;4.472;2023-03-12T08:07:06;6.41;84.98
66670;DHT22;53568;52.164;4.472;2023-03-12T08:09:31;6.45;85.20
66670;DHT22;53568;52.164;4.472;2023-03-12T08:11:57;6.55;85.22
66670;DHT22;53568;52.164;4.472;2023-03-12T08:14:23;6.74;85.04
66670;DHT22;53568;52.164;4.472;2023-03-12T08:16:49;6.91;85.05
66670;DHT22;53568;52.164;4.472;2023-03-12T08:19:14;7.12;84.84
66670;DHT22;53568;52.164;4.472;2023-03-12T08:21:40;7.15;85.04
66670;DHT22;53568;52.164;4.472;2023-03-12T08:24:06;7.27;84.93
66670;DHT22;53568;52.164;4.472;2023-03-12T08:26:31;7.24;85.03
66670;DHT22;53568;52.164;4.472;2023-03-12T08:28:57;7.37;84.98
66670;DHT22;53568;52.164;4.472;2023-03-12T08:31:26;7.49;84.91
66670;DHT22;53568;52.164;4.472;2023-03-12T08:33:51;7.67;84.97
66670;DHT22;53568;52.164;4.472;2023-03-12T08:36:17;7.71;85.01
66670;DHT22;53568;52.164;4.472;2023-03-12T08:38:43;7.74;85.43
66670;DHT22;53568;52.164;4.472;2023-03-12T08:41:09;7.83;85.48
66670;DHT22;53568;52.164;4.472;2023-03-12T08:43:34;7.88;86.01
66670;DHT22;53568;52.164;4.472;2023-03-12T08:46:02;7.97;85.74
66670;DHT22;53568;52.164;4.472;2023-03-12T08:48:32;8.11;85.80
66670;DHT22;53568;52.164;4.472;2023-03-12T08:50:58;8.25;86.12
66670;DHT22;53568;52.164;4.472;2023-03-12T08:53:25;8.32;86.51
66670;DHT22;53568;52.164;4.472;2023-03-12T08:55:55;8.42;86.75
66670;DHT22;53568;52.164;4.472;2023-03-12T08:58:22;8.52;86.69
66670;DHT22;53568;52.164;4.472;2023-03-12T09:00:49;8.63;86.62
66670;DHT22;53568;52.164;4.472;2023-03-12T09:03:15;8.71;87.20
66670;DHT22;53568;52.164;4.472;2023-03-12T09:05:41;8.75;87.12
66670;DHT22;53568;52.164;4.472;2023-03-12T09:08:08;8.83;87.34
66670;DHT22;53568;52.164;4.472;2023-03-12T09:10:34;8.89;87.36
66670;DHT22;53568;52.164;4.472;2023-03-12T09:13:00;8.95;87.40
66670;DHT22;53568;52.164;4.472;2023-03-12T09:15:26;9.03;87.13
66670;DHT22;53568;52.164;4.472;2023-03-12T09:17:51;9.07;87.20
66670;DHT22;53568;52.164;4.472;2023-03-12T09:20:18;9.17;87.01
66670;DHT22;53568;52.164;4.472;2023-03-12T09:22:44;9.20;86.67
66670;DHT22;53568;52.164;4.472;2023-03-12T09:25:10;9.06;86.95
66670;DHT22;53568;52.164;4.472;2023-03-12T09:27:43;9.05;87.31
66670;DHT22;53568;52.164;4.472;2023-03-12T09:30:13;9.10;87.23
66670;DHT22;53568;52.164;4.472;2023-03-12T09:32:39;9.16;87.23
66670;DHT22;53568;52.164;4.472;2023-03-12T09:35:07;9.20;86.89
66670;DHT22;53568;52.164;4.472;2023-03-12T09:37:34;9.33;86.71
66670;DHT22;53568;52.164;4.472;2023-03-12T09:40:00;9.36;86.63
66670;DHT22;53568;52.164;4.472;2023-03-12T09:45:05;9.47;86.30
66670;DHT22;53568;52.164;4.472;2023-03-12T09:47:36;9.52;86.36
66670;DHT22;53568;52.164;4.472;2023-03-12T09:50:28;9.64;86.03
66670;DHT22;53568;52.164;4.472;2023-03-12T09:55:59;9.71;85.68
66670;DHT22;53568;52.164;4.472;2023-03-12T09:58:33;9.71;85.52
66670;DHT22;53568;52.164;4.472;2023-03-12T10:04:17;9.88;85.08
66670;DHT22;53568;52.164;4.472;2023-03-12T10:12:07;10.01;84.65
66670;DHT22;53568;52.164;4.472;2023-03-12T10:17:43;10.11;83.95
66670;DHT22;53568;52.164;4.472;2023-03-12T10:25:59;9.97;83.77
66670;DHT22;53568;52.164;4.472;2023-03-12T10:28:48;9.97;83.58
66670;DHT22;53568;52.164;4.472;2023-03-12T10:31:26;10.01;83.65
66670;DHT22;53568;52.164;4.472;2023-03-12T10:33:58;10.09;83.13
66670;DHT22;53568;52.164;4.472;2023-03-12T10:36:37;10.16;83.07
66670;DHT22;53568;52.164;4.472;2023-03-12T10:39:09;10.16;83.07
66670;DHT22;53568;52.164;4.472;2023-03-12T10:41:37;10.21;82.96
66670;DHT22;53568;52.164;4.472;2023-03-12T10:44:07;10.28;83.02
66670;DHT22;53568;52.164;4.472;2023-03-12T10:54:43;10.39;82.42
66670;DHT22;53568;52.164;4.472;2023-03-12T10:57:11;10.41;82.46
66670;DHT22;53568;52.164;4.472;2023-03-12T10:59:40;10.44;82.22
66670;DHT22;53568;52.164;4.472;2023-03-12T11:02:30;10.44;82.11
66670;DHT22;53568;52.164;4.472;2023-03-12T11:04:57;10.56;81.86
66670;DHT22;53568;52.164;4.472;2023-03-12T11:07:33;10.63;81.47
66670;DHT22;53568;52.164;4.472;2023-03-12T11:10:21;10.70;81.20
66670;DHT22;53568;52.164;4.472;2023-03-12T11:13:03;10.63;80.79
66670;DHT22;53568;52.164;4.472;2023-03-12T11:15:38;10.58;81.02
66670;DHT22;53568;52.164;4.472;2023-03-12T11:18:27;10.58;80.89
66670;DHT22;53568;52.164;4.472;2023-03-12T11:23:35;10.68;80.56
66670;DHT22;53568;52.164;4.472;2023-03-12T11:26:17;10.75;80.25
66670;DHT22;53568;52.164;4.472;2023-03-12T11:28:51;10.76;80.04
66670;DHT22;53568;52.164;4.472;2023-03-12T11:34:29;10.86;79.44
66670;DHT22;53568;52.164;4.472;2023-03-12T11:37:10;10.88;79.15
66670;DHT22;53568;52.164;4.472;2023-03-12T11:47:55;11.14;78.57
66670;DHT22;53568;52.164;4.472;2023-03-12T12:02:00;11.24;77.45
66670;DHT22;53568;52.164;4.472;2023-03-12T12:04:56;11.31;77.38
66670;DHT22;53568;52.164;4.472;2023-03-12T12:08:04;11.46;77.19
66670;DHT22;53568;52.164;4.472;2023-03-12T12:10:57;11.56;76.37
66670;DHT22;53568;52.164;4.472;2023-03-12T12:13:36;11.61;76.08
66670;DHT22;53568;52.164;4.472;2023-03-12T12:19:35;11.57;76.30
66670;DHT22;53568;52.164;4.472;2023-03-12T12:30:20;11.57;75.84
66670;DHT22;53568;52.164;4.472;2023-03-12T12:33:10;11.46;75.56
66670;DHT22;53568;52.164;4.472;2023-03-12T12:35:42;11.51;75.37
66670;DHT22;53568;52.164;4.472;2023-03-12T12:40:41;11.57;74.86
66670;DHT22;53568;52.164;4.472;2023-03-12T12:43:37;11.60;74.83
66670;DHT22;53568;52.164;4.472;2023-03-12T12:46:19;11.61;74.63
66670;DHT22;53568;52.164;4.472;2023-03-12T12:49:11;11.61;74.19
66670;DHT22;53568;52.164;4.472;2023-03-12T12:51:48;11.64;73.84
66670;DHT22;53568;52.164;4.472;2023-03-12T12:57:35;11.71;73.28
66670;DHT22;53568;52.164;4.472;2023-03-12T13:03:16;11.74;72.80
66670;DHT22;53568;52.164;4.472;2023-03-12T13:13:38;11.80;71.52
66670;DHT22;53568;52.164;4.472;2023-03-12T13:19:00;11.82;70.84
66670;DHT22;53568;52.164;4.472;2023-03-12T13:21:45;11.90;70.47
66670;DHT22;53568;52.164;4.472;2023-03-12T13:24:18;11.94;70.36
66670;DHT22;53568;52.164;4.472;2023-03-12T13:29:39;12.12;69.38
66670;DHT22;53568;52.164;4.472;2023-03-12T13:32:09;12.15;69.01
66670;DHT22;53568;52.164;4.472;2023-03-12T13:34:56;12.06;69.00
66670;DHT22;53568;52.164;4.472;2023-03-12T13:43:12;12.10;68.66
66670;DHT22;53568;52.164;4.472;2023-03-12T13:48:18;12.24;67.87
66670;DHT22;53568;52.164;4.472;2023-03-12T13:50:56;12.15;67.49
66670;DHT22;53568;52.164;4.472;2023-03-12T13:53:32;12.20;67.57
66670;DHT22;53568;52.164;4.472;2023-03-12T13:56:10;12.21;67.90
66670;DHT22;53568;52.164;4.472;2023-03-12T13:58:46;12.33;67.83
66670;DHT22;53568;52.164;4.472;2023-03-12T14:01:23;12.33;67.75
66670;DHT22;53568;52.164;4.472;2023-03-12T14:04:16;12.25;67.98
66670;DHT22;53568;52.164;4.472;2023-03-12T14:09:44;12.14;68.11
66670;DHT22;53568;52.164;4.472;2023-03-12T14:12:21;12.15;67.68
66670;DHT22;53568;52.164;4.472;2023-03-12T14:17:29;12.15;67.94
66670;DHT22;53568;52.164;4.472;2023-03-12T14:22:30;12.10;68.54
66670;DHT22;53568;52.164;4.472;2023-03-12T14:25:01;12.28;68.46
66670;DHT22;53568;52.164;4.472;2023-03-12T14:27:31;12.28;69.32
66670;DHT22;53568;52.164;4.472;2023-03-12T14:30:10;12.31;69.60
66670;DHT22;53568;52.164;4.472;2023-03-12T14:32:38;12.18;70.33
66670;DHT22;53568;52.164;4.472;2023-03-12T14:35:25;12.28;70.25
66670;DHT22;53568;52.164;4.472;2023-03-12T14:38:05;12.14;70.93
66670;DHT22;53568;52.164;4.472;2023-03-12T14:40:41;12.17;70.82
66670;DHT22;53568;52.164;4.472;2023-03-12T14:43:31;12.29;70.44
66670;DHT22;53568;52.164;4.472;2023-03-12T14:46:04;12.21;70.32
66670;DHT22;53568;52.164;4.472;2023-03-12T14:48:35;12.26;70.33
66670;DHT22;53568;52.164;4.472;2023-03-12T14:51:03;12.28;69.70
66670;DHT22;53568;52.164;4.472;2023-03-12T14:53:36;12.22;69.63
66670;DHT22;53568;52.164;4.472;2023-03-12T14:56:04;12.22;69.35
66670;DHT22;53568;52.164;4.472;2023-03-12T14:58:31;12.21;69.31
66670;DHT22;53568;52.164;4.472;2023-03-12T15:01:05;12.21;68.96
66670;DHT22;53568;52.164;4.472;2023-03-12T15:03:44;12.24;68.43
66670;DHT22;53568;52.164;4.472;2023-03-12T15:06:20;12.22;68.53
66670;DHT22;53568;52.164;4.472;2023-03-12T15:08:48;12.26;68.26
66670;DHT22;53568;52.164;4.472;2023-03-12T15:11:19;12.29;68.11
66670;DHT22;53568;52.164;4.472;2023-03-12T15:13:49;12.29;68.31
66670;DHT22;53568;52.164;4.472;2023-03-12T15:16:15;12.35;68.37
66670;DHT22;53568;52.164;4.472;2023-03-12T15:18:41;12.29;68.75
66670;DHT22;53568;52.164;4.472;2023-03-12T15:21:07;12.35;68.45
66670;DHT22;53568;52.164;4.472;2023-03-12T15:23:36;12.36;68.41
66670;DHT22;53568;52.164;4.472;2023-03-12T15:28:58;12.32;68.38
66670;DHT22;53568;52.164;4.472;2023-03-12T15:31:24;12.36;68.40
66670;DHT22;53568;52.164;4.472;2023-03-12T15:34:04;12.36;68.33
66670;DHT22;53568;52.164;4.472;2023-03-12T15:36:32;12.33;68.34
66670;DHT22;53568;52.164;4.472;2023-03-12T15:39:02;12.38;68.30
66670;DHT22;53568;52.164;4.472;2023-03-12T15:41:44;12.36;68.12
66670;DHT22;53568;52.164;4.472;2023-03-12T15:44:19;12.42;68.11
66670;DHT22;53568;52.164;4.472;2023-03-12T15:46:47;12.48;67.97
66670;DHT22;53568;52.164;4.472;2023-03-12T15:49:27;12.43;68.23
66670;DHT22;53568;52.164;4.472;2023-03-12T15:52:03;12.46;68.22
66670;DHT22;53568;52.164;4.472;2023-03-12T15:54:30;12.38;68.70
66670;DHT22;53568;52.164;4.472;2023-03-12T15:57:22;12.41;68.66
66670;DHT22;53568;52.164;4.472;2023-03-12T16:02:46;12.35;68.65
66670;DHT22;53568;52.164;4.472;2023-03-12T16:05:12;12.31;68.94
66670;DHT22;53568;52.164;4.472;2023-03-12T16:07:38;12.36;68.96
66670;DHT22;53568;52.164;4.472;2023-03-12T16:10:04;12.35;69.18
66670;DHT22;53568;52.164;4.472;2023-03-12T16:12:30;12.26;69.44
66670;DHT22;53568;52.164;4.472;2023-03-12T16:14:56;12.32;69.49
66670;DHT22;53568;52.164;4.472;2023-03-12T16:17:24;12.29;69.53
66670;DHT22;53568;52.164;4.472;2023-03-12T16:19:50;12.38;69.52
66670;DHT22;53568;52.164;4.472;2023-03-12T16:22:15;12.43;69.39
66670;DHT22;53568;52.164;4.472;2023-03-12T16:24:42;12.39;69.63
66670;DHT22;53568;52.164;4.472;2023-03-12T16:27:13;12.45;69.58
66670;DHT22;53568;52.164;4.472;2023-03-12T16:29:39;12.38;70.00
66670;DHT22;53568;52.164;4.472;2023-03-12T16:32:15;12.25;70.41
66670;DHT22;53568;52.164;4.472;2023-03-12T16:34:42;12.25;70.64
66670;DHT22;53568;52.164;4.472;2023-03-12T16:37:10;12.26;70.73
66670;DHT22;53568;52.164;4.472;2023-03-12T16:39:37;12.21;71.14
66670;DHT22;53568;52.164;4.472;2023-03-12T16:42:11;12.18;71.36
66670;DHT22;53568;52.164;4.472;2023-03-12T16:44:40;12.11;71.53
66670;DHT22;53568;52.164;4.472;2023-03-12T16:47:11;12.05;71.88
66670;DHT22;53568;52.164;4.472;2023-03-12T16:49:37;11.97;72.12
66670;DHT22;53568;52.164;4.472;2023-03-12T16:52:14;11.84;72.51
66670;DHT22;53568;52.164;4.472;2023-03-12T16:54:40;11.75;72.99
66670;DHT22;53568;52.164;4.472;2023-03-12T16:57:12;11.81;72.83
66670;DHT22;53568;52.164;4.472;2023-03-12T16:59:41;11.75;72.99
66670;DHT22;53568;52.164;4.472;2023-03-12T17:02:16;11.64;73.28
66670;DHT22;53568;52.164;4.472;2023-03-12T17:04:42;11.67;73.41
66670;DHT22;53568;52.164;4.472;2023-03-12T17:07:08;11.57;73.88
66670;DHT22;53568;52.164;4.472;2023-03-12T17:09:34;11.50;74.25
66670;DHT22;53568;52.164;4.472;2023-03-12T17:12:00;11.46;74.53
66670;DHT22;53568;52.164;4.472;2023-03-12T17:14:28;11.48;74.46
66670;DHT22;53568;52.164;4.472;2023-03-12T17:16:54;11.53;74.75
66670;DHT22;53568;52.164;4.472;2023-03-12T17:19:20;11.51;74.85
66670;DHT22;53568;52.164;4.472;2023-03-12T17:21:46;11.44;75.36
66670;DHT22;53568;52.164;4.472;2023-03-12T17:24:12;11.50;75.50
66670;DHT22;53568;52.164;4.472;2023-03-12T17:26:38;11.38;75.94
66670;DHT22;53568;52.164;4.472;2023-03-12T17:29:05;11.38;76.48
66670;DHT22;53568;52.164;4.472;2023-03-12T17:31:30;11.40;76.60
66670;DHT22;53568;52.164;4.472;2023-03-12T17:33:56;11.36;76.72
66670;DHT22;53568;52.164;4.472;2023-03-12T17:36:22;11.30;76.87
66670;DHT22;53568;52.164;4.472;2023-03-12T17:38:47;11.27;76.73
66670;DHT22;53568;52.164;4.472;2023-03-12T17:41:13;11.28;76.95
66670;DHT22;53568;52.164;4.472;2023-03-12T17:43:39;11.24;77.05
66670;DHT22;53568;52.164;4.472;2023-03-12T17:46:07;11.24;76.85
66670;DHT22;53568;52.164;4.472;2023-03-12T17:48:34;11.28;76.58
66670;DHT22;53568;52.164;4.472;2023-03-12T17:51:07;11.16;76.85
66670;DHT22;53568;52.164;4.472;2023-03-12T17:53:34;11.17;76.87